Time;durP1;ratioP1;P1;durP2;ratioP2;P2;SDS_P1;SDS_P2;PMS_P1;PMS_P2;Temp;Humidity;BMP_temperature;BMP_pressure;BME280_temperature;BME280_humidity;BME280_pressure;Samples;Min_cycle;Max_cycle;Signal;HPM_P1;HPM_P2
2023/04/21 00:01:11;;;;;;;8.00;2.90;;;12.30;99.90;;;;;;5067642;28;21317;-74
2023/04/21 00:03:38;;;;;;;8.43;2.88;;;12.30;99.90;;;;;;5097516;27;20772;-74
2023/04/21 00:06:05;;;;;;;9.18;3.00;;;12.30;99.90;;;;;;5092839;27;20429;-74
2023/04/21 00:08:31;;;;;;;9.27;2.90;;;12.30;99.90;;;;;;5089966;28;20763;-74
2023/04/21 00:10:58;;;;;;;6.87;2.50;;;12.30;99.90;;;;;;5080431;27;20410;-74
2023/04/21 00:13:24;;;;;;;7.03;2.90;;;12.40;99.90;;;;;;5098919;27;20415;-74
2023/04/21 00:15:50;;;;;;;7.05;2.65;;;12.40;99.90;;;;;;5100322;27;20421;-74
2023/04/21 00:18:17;;;;;;;6.28;2.70;;;12.40;99.90;;;;;;5086969;28;20398;-74
2023/04/21 00:20:45;;;;;;;8.40;2.80;;;12.50;99.90;;;;;;5076152;27;20402;-74
2023/04/21 00:23:11;;;;;;;7.43;2.90;;;12.50;99.90;;;;;;5091041;27;20433;-74
2023/04/21 00:25:37;;;;;;;7.50;2.90;;;12.40;99.90;;;;;;5102862;28;20416;-74
2023/04/21 00:28:04;;;;;;;8.88;3.00;;;12.40;99.90;;;;;;5076613;28;20411;-74
2023/04/21 00:30:30;;;;;;;7.83;2.87;;;12.40;99.90;;;;;;5087580;28;20763;-74
2023/04/21 00:32:56;;;;;;;8.65;2.80;;;12.40;99.90;;;;;;5101655;28;20411;-74
2023/04/21 00:35:22;;;;;;;8.13;3.20;;;12.30;99.90;;;;;;5080418;28;20404;-74
2023/04/21 00:37:51;;;;;;;9.55;3.20;;;12.40;99.90;;;;;;5092999;28;20481;-74
2023/04/21 00:40:18;;;;;;;6.15;2.85;;;12.40;99.90;;;;;;5096698;28;20416;-74
2023/04/21 00:42:44;;;;;;;9.30;3.10;;;12.40;99.90;;;;;;5079497;28;20418;-74
2023/04/21 00:45:11;;;;;;;9.45;2.97;;;12.40;99.90;;;;;;5096451;28;20757;-74
2023/04/21 00:47:37;;;;;;;6.88;2.50;;;12.40;99.90;;;;;;5094721;28;21060;-74
2023/04/21 00:50:04;;;;;;;9.18;2.80;;;12.40;99.90;;;;;;5076449;28;20916;-74
2023/04/21 00:52:31;;;;;;;8.68;3.05;;;12.50;99.90;;;;;;5088581;28;20415;-74
2023/04/21 00:54:58;;;;;;;8.30;3.28;;;12.40;99.90;;;;;;5088100;28;20409;-74
2023/04/21 00:57:26;;;;;;;6.65;2.95;;;12.40;99.90;;;;;;5092111;28;20414;-74
2023/04/21 00:59:52;;;;;;;8.73;3.10;;;12.50;99.90;;;;;;5089632;28;20498;-74
2023/04/21 01:02:19;;;;;;;6.80;3.20;;;12.50;99.90;;;;;;5091006;28;20508;-74
2023/04/21 01:04:46;;;;;;;9.05;3.00;;;12.50;99.90;;;;;;5069576;28;20503;-74
2023/04/21 01:07:12;;;;;;;8.57;3.40;;;12.50;99.90;;;;;;5082500;28;20817;-74
2023/04/21 01:09:43;;;;;;;10.32;3.00;;;12.50;99.90;;;;;;5081900;28;20410;-74
2023/04/21 01:12:12;;;;;;;8.97;2.80;;;12.50;99.90;;;;;;5093253;28;20892;-74
2023/04/21 01:14:40;;;;;;;7.63;3.00;;;12.40;99.90;;;;;;5096953;27;20428;-74
2023/04/21 01:17:07;;;;;;;8.30;3.03;;;12.30;99.90;;;;;;5080176;28;20397;-75
2023/04/21 01:19:39;;;;;;;10.63;3.28;;;12.40;99.90;;;;;;5096487;27;20421;-74
2023/04/21 01:22:11;;;;;;;10.73;3.10;;;12.40;99.90;;;;;;5085594;28;20416;-75
2023/04/21 01:24:42;;;;;;;8.60;3.23;;;12.40;99.90;;;;;;5090947;28;20432;-75
2023/04/21 01:27:17;;;;;;;12.35;3.45;;;12.50;99.90;;;;;;5093209;27;20853;-74
2023/04/21 01:29:47;;;;;;;8.45;3.10;;;12.50;99.90;;;;;;5079270;28;20413;-74
2023/04/21 01:32:18;;;;;;;8.00;3.15;;;12.40;99.90;;;;;;5094558;28;20440;-74
2023/04/21 01:34:45;;;;;;;10.30;3.08;;;12.40;99.90;;;;;;5099916;27;20502;-75
2023/04/21 01:37:16;;;;;;;11.05;3.15;;;12.50;99.90;;;;;;5083663;27;20493;-75
2023/04/21 01:39:46;;;;;;;9.82;3.05;;;12.50;99.90;;;;;;5073631;28;20462;-73
2023/04/21 01:42:14;;;;;;;11.07;3.43;;;12.40;99.90;;;;;;5095106;27;20402;-74
2023/04/21 01:44:40;;;;;;;7.13;3.10;;;12.50;99.90;;;;;;5090959;28;20432;-74
2023/04/21 01:47:07;;;;;;;9.07;3.20;;;12.50;99.90;;;;;;5078326;28;20414;-74
2023/04/21 01:49:33;;;;;;;10.07;3.30;;;12.40;99.90;;;;;;5111074;27;21112;-74
2023/04/21 01:51:59;;;;;;;8.20;2.80;;;12.40;99.90;;;;;;5094886;28;20423;-74
2023/04/21 01:54:25;;;;;;;8.82;3.38;;;12.40;99.90;;;;;;5083303;27;21140;-75
2023/04/21 01:56:52;;;;;;;8.43;3.30;;;12.40;99.90;;;;;;5081857;27;20471;-74
2023/04/21 01:59:18;;;;;;;8.68;3.10;;;12.50;99.90;;;;;;5080031;27;20432;-74
2023/04/21 02:01:44;;;;;;;9.50;3.15;;;12.50;99.90;;;;;;5089577;28;20430;-74
2023/04/21 02:04:11;;;;;;;7.72;2.90;;;12.50;99.90;;;;;;5091031;28;20496;-74
2023/04/21 02:06:37;;;;;;;10.50;3.70;;;12.50;99.90;;;;;;5100026;27;20754;-74
2023/04/21 02:09:04;;;;;;;9.63;3.42;;;12.50;99.90;;;;;;5112732;27;20413;-74
2023/04/21 02:11:30;;;;;;;9.27;3.03;;;12.40;99.90;;;;;;5090087;27;20478;-74
2023/04/21 02:13:57;;;;;;;11.63;3.27;;;12.40;99.90;;;;;;5092093;28;20417;-74
2023/04/21 02:16:26;;;;;;;10.35;3.30;;;12.30;99.90;;;;;;5094589;27;20420;-74
2023/04/21 02:18:53;;;;;;;7.45;3.03;;;12.30;99.90;;;;;;5093734;28;20405;-74
2023/04/21 02:21:21;;;;;;;8.00;3.17;;;12.30;99.90;;;;;;5092620;27;20425;-74
2023/04/21 02:23:47;;;;;;;10.45;3.33;;;12.20;99.90;;;;;;5085538;27;21310;-74
2023/04/21 02:26:14;;;;;;;11.13;3.40;;;12.20;99.90;;;;;;5090953;27;20489;-74
2023/04/21 02:28:40;;;;;;;9.85;3.50;;;12.30;99.90;;;;;;5097361;27;20465;-74
2023/04/21 02:31:07;;;;;;;9.63;3.47;;;12.40;99.90;;;;;;5097172;27;20417;-74
2023/04/21 02:33:34;;;;;;;9.00;3.17;;;12.30;99.90;;;;;;5081668;27;20430;-74
2023/04/21 02:36:01;;;;;;;7.47;3.33;;;12.20;99.90;;;;;;5077849;28;20422;-74
2023/04/21 02:38:27;;;;;;;11.57;3.35;;;12.20;99.90;;;;;;5100446;27;22406;-74
2023/04/21 02:40:53;;;;;;;9.52;3.45;;;12.10;99.90;;;;;;5090442;28;20423;-74
2023/04/21 02:43:19;;;;;;;9.33;3.57;;;12.10;99.90;;;;;;5107366;27;21142;-74
2023/04/21 02:45:45;;;;;;;10.68;3.28;;;12.20;99.90;;;;;;5099937;27;21535;-74
2023/04/21 02:48:12;;;;;;;8.38;3.47;;;12.30;99.90;;;;;;5084623;28;20476;-75
2023/04/21 02:50:39;;;;;;;10.30;3.47;;;12.20;99.90;;;;;;5071598;27;20845;-74
2023/04/21 02:53:06;;;;;;;8.63;3.25;;;12.30;99.90;;;;;;5099116;27;20522;-74
2023/04/21 02:55:32;;;;;;;6.27;3.00;;;12.30;99.90;;;;;;5078313;28;20427;-75
2023/04/21 02:57:58;;;;;;;7.80;3.25;;;12.20;99.90;;;;;;5095424;27;20419;-74
2023/04/21 03:00:24;;;;;;;9.32;3.50;;;12.10;99.90;;;;;;5090323;28;20928;-74
2023/04/21 03:02:52;;;;;;;9.73;3.42;;;12.10;99.90;;;;;;5081022;27;20752;-74
2023/04/21 03:05:18;;;;;;;7.38;3.35;;;12.10;99.90;;;;;;5097358;27;20417;-74
2023/04/21 03:07:45;;;;;;;7.63;3.20;;;12.20;99.90;;;;;;5087710;28;20413;-74
2023/04/21 03:10:11;;;;;;;9.27;3.03;;;12.10;99.90;;;;;;5104740;27;20403;-74
2023/04/21 03:12:37;;;;;;;7.93;3.00;;;12.20;99.90;;;;;;5083929;28;20721;-74
2023/04/21 03:15:04;;;;;;;7.05;3.20;;;12.20;99.90;;;;;;5094527;27;20794;-74
2023/04/21 03:17:30;;;;;;;9.18;3.30;;;12.20;99.90;;;;;;5060795;28;20416;-74
2023/04/21 03:19:56;;;;;;;8.77;3.28;;;12.20;99.90;;;;;;5091559;28;20474;-74
2023/04/21 03:22:23;;;;;;;8.55;3.10;;;12.20;99.90;;;;;;5080445;27;20563;-74
2023/04/21 03:24:49;;;;;;;9.73;3.30;;;12.20;99.90;;;;;;5081076;28;20933;-74
2023/04/21 03:27:15;;;;;;;10.88;3.35;;;12.10;99.90;;;;;;5064941;28;20872;-74
2023/04/21 03:29:41;;;;;;;9.75;3.40;;;12.00;99.90;;;;;;5093731;27;20567;-74
2023/04/21 03:32:08;;;;;;;7.68;3.00;;;12.10;99.90;;;;;;5094642;27;20413;-74
2023/04/21 03:34:34;;;;;;;7.20;3.07;;;12.10;99.90;;;;;;5080608;28;20411;-74
2023/04/21 03:37:00;;;;;;;8.23;3.33;;;12.20;99.90;;;;;;5093308;28;20473;-74
2023/04/21 03:39:26;;;;;;;9.30;3.50;;;12.20;99.90;;;;;;5083217;28;20473;-74
2023/04/21 03:41:52;;;;;;;12.20;3.67;;;12.30;99.90;;;;;;5110453;27;20410;-74
2023/04/21 03:44:19;;;;;;;8.55;3.17;;;12.30;99.90;;;;;;5088218;28;20404;-76
2023/04/21 03:46:45;;;;;;;9.40;3.47;;;12.20;99.90;;;;;;5098364;28;20505;-74
2023/04/21 03:49:11;;;;;;;9.55;3.40;;;12.30;99.90;;;;;;5093587;28;20409;-74
2023/04/21 03:51:37;;;;;;;7.95;3.47;;;12.40;99.90;;;;;;5111142;27;20415;-74
2023/04/21 03:54:03;;;;;;;8.40;3.47;;;12.40;99.90;;;;;;5092828;28;20771;-74
2023/04/21 03:56:29;;;;;;;9.00;3.50;;;12.50;99.90;;;;;;5080353;28;20400;-74
2023/04/21 03:58:56;;;;;;;9.88;3.60;;;12.50;99.90;;;;;;5097259;27;20409;-74
2023/04/21 04:01:22;;;;;;;8.88;3.42;;;12.60;99.90;;;;;;5084812;27;20414;-74
2023/04/21 04:03:48;;;;;;;12.23;3.67;;;12.50;99.90;;;;;;5071260;28;20485;-74
2023/04/21 04:06:14;;;;;;;11.32;3.58;;;12.50;99.90;;;;;;5093672;27;20411;-74
2023/04/21 04:08:40;;;;;;;9.77;3.60;;;12.50;99.90;;;;;;5080630;28;20405;-74
2023/04/21 04:11:06;;;;;;;11.20;3.40;;;12.50;99.90;;;;;;5076933;28;20410;-74
2023/04/21 04:13:33;;;;;;;9.00;3.17;;;12.50;99.90;;;;;;5096654;28;20418;-74
2023/04/21 04:15:59;;;;;;;9.27;3.60;;;12.50;99.90;;;;;;5080321;28;20404;-74
2023/04/21 04:18:25;;;;;;;6.78;3.17;;;12.60;99.90;;;;;;5104403;27;20859;-74
2023/04/21 04:20:51;;;;;;;8.85;3.50;;;12.60;99.90;;;;;;5078402;27;20773;-74
2023/04/21 04:23:17;;;;;;;8.88;3.42;;;12.70;99.90;;;;;;5066411;28;20402;-74
2023/04/21 04:25:46;;;;;;;12.07;4.00;;;12.70;99.90;;;;;;5072197;28;20407;-74
2023/04/21 04:28:14;;;;;;;8.03;3.47;;;12.80;99.90;;;;;;5086802;28;20402;-75
2023/04/21 04:30:41;;;;;;;10.48;3.80;;;12.80;99.90;;;;;;5081997;28;20485;-74
2023/04/21 04:33:08;;;;;;;11.82;3.58;;;12.80;99.90;;;;;;5110782;28;21083;-74
2023/04/21 04:35:35;;;;;;;10.95;4.15;;;12.90;99.90;;;;;;5094871;28;20484;-74
2023/04/21 04:38:01;;;;;;;9.80;3.63;;;13.00;99.90;;;;;;5078992;28;20402;-74
2023/04/21 04:40:29;;;;;;;9.23;3.60;;;13.00;99.90;;;;;;5071128;28;20503;-74
2023/04/21 04:42:55;;;;;;;8.50;3.55;;;13.10;99.90;;;;;;5087449;28;21201;-74
2023/04/21 04:45:21;;;;;;;10.90;4.00;;;13.10;99.90;;;;;;5077954;28;20465;-74
2023/04/21 04:47:49;;;;;;;10.80;3.83;;;13.30;99.90;;;;;;5090729;27;20892;-74
2023/04/21 04:50:15;;;;;;;10.23;3.53;;;13.30;99.90;;;;;;5099369;27;20424;-74
2023/04/21 04:52:45;;;;;;;9.27;3.40;;;13.50;99.90;;;;;;5080857;28;20723;-74
2023/04/21 04:55:13;;;;;;;12.52;3.67;;;13.60;99.90;;;;;;5082061;28;20494;-74
2023/04/21 04:57:39;;;;;;;11.97;3.60;;;13.70;99.90;;;;;;5084222;28;21052;-74
2023/04/21 05:00:10;;;;;;;8.40;3.25;;;13.80;99.90;;;;;;5094641;27;20424;-74
2023/04/21 05:02:37;;;;;;;8.27;3.33;;;13.90;99.90;;;;;;5101105;27;20523;-74
2023/04/21 05:05:06;;;;;;;11.52;3.70;;;13.90;99.90;;;;;;5076073;28;20428;-74
2023/04/21 05:07:33;;;;;;;9.80;3.43;;;14.00;99.90;;;;;;5076923;28;20746;-74
2023/04/21 05:10:00;;;;;;;13.45;3.35;;;14.20;99.90;;;;;;5089600;27;20814;-74
2023/04/21 05:12:26;;;;;;;8.88;3.42;;;14.20;99.90;;;;;;5097146;27;20404;-74
2023/04/21 05:14:52;;;;;;;13.32;3.58;;;14.20;99.90;;;;;;5097131;27;20870;-74
2023/04/21 05:17:18;;;;;;;9.35;3.00;;;14.30;99.90;;;;;;5082235;28;20756;-74
2023/04/21 05:19:44;;;;;;;11.88;3.50;;;14.30;99.90;;;;;;5105260;27;20951;-74
2023/04/21 05:22:11;;;;;;;11.10;3.47;;;14.40;99.90;;;;;;5095071;27;20410;-74
2023/04/21 05:24:41;;;;;;;7.53;3.00;;;14.50;99.90;;;;;;5097542;27;20522;-74
2023/04/21 05:27:08;;;;;;;10.50;3.60;;;14.50;99.90;;;;;;5097045;27;20927;-74
2023/04/21 05:29:34;;;;;;;10.80;3.28;;;14.60;99.90;;;;;;5079831;28;20767;-74
2023/04/21 05:32:00;;;;;;;9.57;3.35;;;14.60;99.90;;;;;;5079189;28;20404;-74
2023/04/21 05:34:26;;;;;;;9.48;3.38;;;14.80;99.90;;;;;;5075166;28;20850;-74
2023/04/21 05:36:53;;;;;;;9.70;3.10;;;14.90;99.90;;;;;;5093975;27;20425;-74
2023/04/21 05:39:19;;;;;;;11.45;3.85;;;14.90;99.90;;;;;;5076304;27;21252;-74
2023/04/21 05:41:45;;;;;;;11.68;3.58;;;15.00;99.90;;;;;;5096563;27;20450;-75
2023/04/21 05:44:11;;;;;;;8.48;3.20;;;15.10;99.90;;;;;;5111884;27;20406;-74
2023/04/21 05:46:37;;;;;;;13.50;3.75;;;15.10;99.90;;;;;;5110436;27;21217;-74
2023/04/21 05:49:04;;;;;;;10.93;3.60;;;15.10;99.90;;;;;;5078760;28;20446;-74
2023/04/21 05:51:30;;;;;;;11.20;3.25;;;15.10;99.90;;;;;;5109213;27;20414;-77
2023/04/21 05:53:57;;;;;;;9.18;3.38;;;15.20;99.90;;;;;;5079535;28;20436;-76
2023/04/21 05:56:23;;;;;;;10.10;3.45;;;15.20;99.90;;;;;;5103394;27;20416;-76
2023/04/21 05:58:49;;;;;;;8.13;3.17;;;15.10;99.90;;;;;;5092713;27;20502;-76
2023/04/21 06:01:15;;;;;;;9.23;3.35;;;15.10;99.90;;;;;;5096197;27;20523;-76
2023/04/21 06:03:42;;;;;;;10.27;3.47;;;15.20;99.90;;;;;;5098014;27;20421;-76
2023/04/21 06:06:10;;;;;;;8.50;3.20;;;15.20;99.90;;;;;;5104225;27;20961;-76
2023/04/21 06:08:36;;;;;;;8.90;3.42;;;15.40;99.90;;;;;;5096194;27;20400;-76
2023/04/21 06:11:03;;;;;;;11.15;3.22;;;15.50;99.90;;;;;;5085664;28;20415;-77
2023/04/21 06:13:29;;;;;;;8.48;3.28;;;15.60;99.90;;;;;;5097167;27;20435;-76
2023/04/21 06:15:55;;;;;;;9.02;3.35;;;15.70;99.90;;;;;;5097016;28;20408;-77
2023/04/21 06:18:22;;;;;;;7.82;3.22;;;15.70;99.90;;;;;;5094366;28;20417;-76
2023/04/21 06:20:53;;;;;;;10.15;3.05;;;15.70;99.90;;;;;;5092785;27;21114;-76
2023/04/21 06:23:20;;;;;;;10.10;3.33;;;15.70;99.90;;;;;;5096769;27;20418;-76
2023/04/21 06:25:58;;;;;;;14.10;3.33;;;15.70;99.90;;;;;;5093495;27;20474;-76
2023/04/21 06:28:24;;;;;;;9.07;3.15;;;15.70;99.90;;;;;;5095425;27;20416;-76
2023/04/21 06:30:50;;;;;;;9.95;3.10;;;15.70;99.90;;;;;;5098705;27;20414;-77
2023/04/21 06:33:16;;;;;;;9.13;3.08;;;15.80;99.90;;;;;;5081550;27;20501;-77
2023/04/21 06:35:43;;;;;;;7.73;3.10;;;15.90;99.90;;;;;;5080402;28;20427;-77
2023/04/21 06:38:09;;;;;;;9.18;2.80;;;15.90;99.90;;;;;;5079209;28;20500;-76
2023/04/21 06:40:35;;;;;;;9.60;3.17;;;16.00;99.90;;;;;;5085483;27;20857;-76
2023/04/21 06:43:02;;;;;;;7.90;2.53;;;16.10;99.90;;;;;;5096875;27;20410;-76
2023/04/21 06:45:28;;;;;;;9.07;2.95;;;16.20;99.90;;;;;;5093038;27;20828;-76
2023/04/21 06:47:54;;;;;;;9.00;3.00;;;16.20;99.90;;;;;;5085188;28;20409;-76
2023/04/21 06:50:20;;;;;;;6.22;2.72;;;16.30;99.90;;;;;;5096302;27;20471;-76
2023/04/21 06:52:46;;;;;;;7.78;2.60;;;16.40;99.90;;;;;;5105582;27;20485;-76
2023/04/21 06:55:13;;;;;;;8.00;2.63;;;16.50;99.90;;;;;;5086759;28;20404;-76
2023/04/21 06:57:39;;;;;;;9.68;2.58;;;16.70;99.90;;;;;;5096860;27;20409;-76
2023/04/21 07:00:06;;;;;;;7.03;2.65;;;16.90;99.90;;;;;;5098569;27;20854;-76
2023/04/21 07:02:32;;;;;;;8.18;2.78;;;16.90;99.90;;;;;;5092350;27;20414;-76
2023/04/21 07:04:59;;;;;;;8.50;2.90;;;16.90;99.90;;;;;;5100347;27;20414;-76
2023/04/21 07:07:25;;;;;;;7.80;2.70;;;16.80;99.90;;;;;;5094505;27;20408;-77
2023/04/21 07:09:51;;;;;;;7.38;2.60;;;16.80;99.90;;;;;;5098611;27;20400;-76
2023/04/21 07:12:17;;;;;;;7.03;2.70;;;16.90;99.90;;;;;;5063708;28;20422;-76
2023/04/21 07:14:43;;;;;;;7.97;3.00;;;17.00;99.90;;;;;;5098081;27;20779;-76
2023/04/21 07:17:09;;;;;;;7.75;2.80;;;17.10;99.90;;;;;;5097070;28;20410;-76
2023/04/21 07:19:36;;;;;;;4.55;2.10;;;17.20;99.90;;;;;;5108888;27;20421;-76
2023/04/21 07:22:02;;;;;;;10.07;2.72;;;17.20;99.90;;;;;;5088903;28;20417;-76
2023/04/21 07:24:29;;;;;;;5.45;2.05;;;17.10;99.90;;;;;;5062955;27;21152;-76
2023/04/21 07:26:55;;;;;;;6.07;2.38;;;17.20;99.90;;;;;;5102447;27;20496;-76
2023/04/21 07:29:21;;;;;;;4.78;1.85;;;17.30;99.90;;;;;;5087638;27;20400;-76
2023/04/21 07:31:47;;;;;;;5.10;1.90;;;17.40;99.90;;;;;;5092345;27;20413;-77
2023/04/21 07:34:14;;;;;;;4.53;2.00;;;17.70;99.90;;;;;;5095844;27;20420;-77
2023/04/21 07:36:42;;;;;;;8.40;2.40;;;17.60;99.90;;;;;;5081313;27;20410;-77
2023/04/21 07:39:08;;;;;;;5.70;2.17;;;17.70;99.90;;;;;;5092239;27;20418;-77
2023/04/21 07:41:34;;;;;;;5.80;2.30;;;17.70;99.90;;;;;;5102922;27;20421;-75
2023/04/21 07:44:01;;;;;;;7.18;2.35;;;17.80;99.90;;;;;;5086665;28;20889;-77
2023/04/21 07:46:30;;;;;;;7.95;2.60;;;17.90;99.90;;;;;;5096918;27;20402;-77
2023/04/21 07:48:58;;;;;;;6.20;2.40;;;18.00;99.90;;;;;;5082996;28;20409;-77
2023/04/21 07:51:28;;;;;;;5.53;2.42;;;18.00;99.90;;;;;;5085256;27;20847;-76
2023/04/21 07:53:55;;;;;;;7.10;2.53;;;18.10;99.90;;;;;;5094680;27;20650;-77
2023/04/21 07:56:21;;;;;;;6.15;2.30;;;18.10;99.90;;;;;;5101286;27;20406;-76
2023/04/21 07:58:47;;;;;;;5.82;2.35;;;18.30;99.90;;;;;;5083861;28;20418;-77
2023/04/21 08:01:14;;;;;;;6.60;2.47;;;18.30;99.90;;;;;;5090591;27;20795;-73
2023/04/21 08:03:40;;;;;;;7.13;2.35;;;18.40;99.90;;;;;;5083389;27;20755;-73
2023/04/21 08:06:07;;;;;;;6.78;2.60;;;18.40;99.90;;;;;;5090931;28;20408;-73
2023/04/21 08:08:34;;;;;;;7.85;2.60;;;18.60;99.90;;;;;;5095146;27;21110;-73
2023/04/21 08:11:00;;;;;;;6.50;2.40;;;18.60;99.90;;;;;;5085662;28;20434;-73
2023/04/21 08:13:26;;;;;;;4.30;2.20;;;18.80;99.90;;;;;;5096065;28;20415;-73
2023/04/21 08:15:53;;;;;;;6.03;2.42;;;18.80;99.90;;;;;;5100870;27;21094;-73
2023/04/21 08:18:20;;;;;;;8.23;2.50;;;19.00;99.90;;;;;;5103687;27;20409;-73
2023/04/21 08:20:47;;;;;;;6.28;2.40;;;19.00;99.90;;;;;;5100667;27;20463;-73
2023/04/21 08:23:15;;;;;;;6.13;2.40;;;19.10;99.90;;;;;;5097027;28;20529;-73
2023/04/21 08:25:41;;;;;;;6.47;2.30;;;19.10;99.90;;;;;;5102001;28;20487;-73
2023/04/21 08:28:07;;;;;;;4.88;2.55;;;19.10;99.90;;;;;;5073606;27;20601;-73
2023/04/21 08:30:34;;;;;;;5.65;2.40;;;19.30;99.90;;;;;;5104488;27;20505;-73
2023/04/21 08:33:01;;;;;;;6.43;2.47;;;19.30;99.90;;;;;;5085533;28;20418;-73
2023/04/21 08:35:28;;;;;;;9.55;2.63;;;19.50;99.90;;;;;;5086092;28;20415;-73
2023/04/21 08:37:54;;;;;;;9.27;3.15;;;19.60;99.90;;;;;;5100414;28;20492;-73
2023/04/21 08:40:20;;;;;;;10.15;3.00;;;19.60;99.90;;;;;;5087675;28;20473;-73
2023/04/21 08:42:48;;;;;;;7.40;2.75;;;19.60;99.90;;;;;;5095118;28;20976;-73
2023/04/21 08:45:14;;;;;;;8.43;2.95;;;19.70;99.90;;;;;;5092390;28;20400;-73
2023/04/21 08:47:41;;;;;;;9.23;2.92;;;19.70;99.90;;;;;;5092719;28;20412;-73
2023/04/21 08:50:13;;;;;;;8.93;2.60;;;19.80;99.90;;;;;;5087962;28;20491;-73
2023/04/21 08:52:40;;;;;;;9.85;2.90;;;20.00;99.90;;;;;;5092336;28;21133;-73
2023/04/21 08:55:08;;;;;;;8.98;2.90;;;20.00;99.90;;;;;;5086039;28;20412;-73
2023/04/21 08:57:34;;;;;;;8.05;2.90;;;20.30;99.90;;;;;;5106497;28;20475;-73
2023/04/21 09:00:00;;;;;;;7.15;2.88;;;20.60;99.90;;;;;;5101260;28;20530;-73
2023/04/21 09:02:26;;;;;;;7.77;2.60;;;20.60;99.90;;;;;;5084981;28;20413;-73
2023/04/21 09:04:56;;;;;;;9.13;2.78;;;20.60;99.90;;;;;;5081084;28;20869;-73
2023/04/21 09:07:40;;;;;;;8.27;2.63;;;20.80;99.90;;;;;;5110136;28;21093;-73
2023/04/21 09:10:07;;;;;;;7.40;2.60;;;20.90;99.90;;;;;;5093579;28;20409;-73
2023/04/21 09:12:33;;;;;;;9.02;2.78;;;20.80;99.90;;;;;;5086932;28;20413;-73
2023/04/21 09:15:05;;;;;;;6.72;2.70;;;21.00;99.90;;;;;;5086474;28;20653;-73
2023/04/21 09:17:32;;;;;;;7.55;2.45;;;21.10;99.90;;;;;;5092701;28;20408;-73
2023/04/21 09:20:21;;;;;;;7.47;2.50;;;21.20;99.90;;;;;;5077285;28;20408;-73
2023/04/21 09:22:50;;;;;;;8.35;2.72;;;21.10;99.90;;;;;;5076610;28;20417;-74
2023/04/21 09:25:19;;;;;;;6.43;2.50;;;21.20;99.90;;;;;;5078817;28;20401;-73
2023/04/21 09:27:47;;;;;;;6.88;2.50;;;21.30;99.90;;;;;;5106237;28;20407;-73
2023/04/21 09:30:19;;;;;;;6.50;2.35;;;21.20;99.90;;;;;;5102549;28;20432;-73
2023/04/21 09:32:45;;;;;;;9.10;2.60;;;21.40;99.90;;;;;;5083470;28;20878;-73
2023/04/21 09:35:11;;;;;;;8.02;2.53;;;21.40;99.90;;;;;;5098874;28;20404;-73
2023/04/21 09:37:41;;;;;;;5.38;2.20;;;21.60;99.90;;;;;;5085085;27;20409;-73
2023/04/21 09:40:13;;;;;;;5.95;2.40;;;21.70;99.90;;;;;;5077960;28;20404;-73
2023/04/21 09:42:40;;;;;;;6.43;2.30;;;21.80;99.90;;;;;;5111067;27;20800;-73
2023/04/21 09:45:09;;;;;;;4.03;2.13;;;21.90;99.90;;;;;;5100303;27;20435;-74
2023/04/21 09:47:41;;;;;;;3.90;1.80;;;22.00;99.90;;;;;;5096808;28;20408;-73
2023/04/21 09:50:11;;;;;;;5.50;2.15;;;22.00;99.90;;;;;;5089779;28;20410;-73
2023/04/21 09:52:38;;;;;;;6.07;2.38;;;22.00;99.90;;;;;;5088249;27;20417;-73
2023/04/21 09:55:11;;;;;;;6.53;2.60;;;21.90;99.90;;;;;;5101647;27;21225;-73
2023/04/21 09:57:43;;;;;;;7.85;2.47;;;21.90;99.90;;;;;;5083801;27;20611;-74
2023/04/21 10:00:12;;;;;;;7.07;2.40;;;21.70;99.90;;;;;;5102811;27;20420;-74
2023/04/21 10:02:49;;;;;;;6.88;2.67;;;21.70;99.90;;;;;;5098180;28;20448;-74
2023/04/21 10:05:16;;;;;;;6.85;2.60;;;21.90;99.90;;;;;;5103848;27;20482;-73
2023/04/21 10:07:45;;;;;;;5.55;2.47;;;21.80;99.90;;;;;;5107484;27;20804;-74
2023/04/21 10:10:34;;;;;;;5.00;2.70;;;21.80;99.90;;;;;;5080299;28;21227;-73
2023/04/21 10:13:01;;;;;;;7.00;2.60;;;21.80;99.90;;;;;;5085134;28;20446;-73
2023/04/21 10:15:40;;;;;;;5.28;2.45;;;21.90;99.90;;;;;;5104708;27;20526;-73
2023/04/21 10:18:24;;;;;;;6.82;2.63;;;22.20;99.90;;;;;;5099541;28;20420;-73
2023/04/21 10:20:52;;;;;;;6.20;2.50;;;22.20;99.90;;;;;;5110497;27;20416;-73
2023/04/21 10:23:44;;;;;;;5.53;2.78;;;22.30;99.90;;;;;;5089376;27;20413;-74
2023/04/21 10:26:18;;;;;;;7.65;2.72;;;21.90;99.90;;;;;;5102365;27;20843;-74
2023/04/21 10:28:53;;;;;;;7.20;2.50;;;21.90;99.90;;;;;;5112092;27;20417;-74
2023/04/21 10:31:36;;;;;;;6.25;2.60;;;21.80;99.90;;;;;;5069248;28;20408;-74
2023/04/21 10:34:09;;;;;;;14.18;2.60;;;21.70;99.90;;;;;;5085033;28;20411;-74
2023/04/21 10:36:50;;;;;;;8.30;2.80;;;21.90;99.90;;;;;;5105703;27;20409;-74
2023/04/21 10:39:51;;;;;;;7.75;2.42;;;22.00;99.90;;;;;;5087012;28;20445;-73
2023/04/21 10:42:21;;;;;;;8.23;2.58;;;22.00;99.90;;;;;;5083883;28;20537;-74
2023/04/21 10:44:52;;;;;;;6.28;2.65;;;21.90;99.90;;;;;;5083714;27;20472;-73
2023/04/21 10:47:35;;;;;;;7.25;2.53;;;22.00;99.90;;;;;;5120969;27;20439;-74
2023/04/21 10:50:16;;;;;;;6.68;2.70;;;21.80;99.90;;;;;;5109453;27;20404;-74
2023/04/21 10:52:55;;;;;;;6.15;2.60;;;21.70;99.90;;;;;;5099427;28;20412;-73
2023/04/21 10:55:25;;;;;;;6.63;2.50;;;21.70;99.90;;;;;;5097681;27;20416;-73
2023/04/21 10:57:52;;;;;;;5.22;2.30;;;21.80;99.90;;;;;;5099078;27;22249;-74
2023/04/21 11:00:22;;;;;;;5.93;2.20;;;21.80;99.90;;;;;;5097240;27;20439;-73
2023/04/21 11:03:04;;;;;;;6.00;2.60;;;21.60;99.90;;;;;;5082029;28;20436;-73
2023/04/21 11:05:37;;;;;;;7.65;2.60;;;21.50;99.90;;;;;;5107216;27;20586;-73
2023/04/21 11:08:14;;;;;;;5.50;2.35;;;21.50;99.90;;;;;;5094854;28;20406;-73
2023/04/21 11:10:53;;;;;;;8.18;3.00;;;21.40;99.90;;;;;;5062965;27;20450;-73
2023/04/21 11:13:26;;;;;;;8.17;2.63;;;21.20;99.90;;;;;;5087591;27;20851;-73
2023/04/21 11:15:57;;;;;;;5.75;2.55;;;21.10;99.90;;;;;;5100981;27;20418;-73
2023/04/21 11:18:55;;;;;;;5.90;2.50;;;21.10;99.90;;;;;;5095365;27;20412;-73
2023/04/21 11:21:21;;;;;;;5.10;2.53;;;21.00;99.90;;;;;;5083442;27;20427;-73
2023/04/21 11:23:56;;;;;;;5.25;2.50;;;21.10;99.90;;;;;;5079585;28;20490;-73
2023/04/21 11:26:41;;;;;;;6.85;2.70;;;21.00;99.90;;;;;;5073904;28;20412;-73
2023/04/21 11:29:10;;;;;;;6.90;2.72;;;20.90;99.90;;;;;;5079713;28;20844;-73
2023/04/21 11:31:40;;;;;;;5.93;2.60;;;20.90;99.90;;;;;;5082886;28;20408;-73
2023/04/21 11:34:07;;;;;;;4.88;2.40;;;20.80;99.90;;;;;;5075476;28;23047;-73
2023/04/21 11:36:44;;;;;;;5.35;2.60;;;20.70;99.90;;;;;;5095789;27;20414;-73
2023/04/21 11:39:12;;;;;;;5.35;2.63;;;20.60;99.90;;;;;;5086213;27;20423;-73
2023/04/21 11:41:44;;;;;;;5.90;2.50;;;20.80;99.90;;;;;;5096514;28;20412;-73
2023/04/21 11:44:12;;;;;;;7.45;2.85;;;20.70;99.90;;;;;;5099071;28;20408;-73
2023/04/21 11:46:45;;;;;;;6.25;2.80;;;20.80;99.90;;;;;;5088131;28;20496;-73
2023/04/21 11:49:16;;;;;;;6.20;2.78;;;20.90;99.90;;;;;;5097848;27;20452;-73
2023/04/21 11:51:43;;;;;;;6.32;2.90;;;20.90;99.90;;;;;;5100930;27;20937;-73
2023/04/21 11:54:12;;;;;;;4.43;2.60;;;21.00;99.90;;;;;;5104679;27;20411;-73
2023/04/21 11:56:41;;;;;;;4.35;2.67;;;20.80;99.90;;;;;;5097480;27;20429;-73
2023/04/21 11:59:09;;;;;;;7.47;2.80;;;20.90;99.90;;;;;;5085351;28;20492;-73
2023/04/21 12:01:47;;;;;;;5.85;2.78;;;20.90;99.90;;;;;;5103440;27;20420;-73
2023/04/21 12:04:16;;;;;;;5.97;2.63;;;20.90;99.90;;;;;;5113089;27;20408;-73
2023/04/21 12:06:44;;;;;;;7.23;2.80;;;20.90;99.90;;;;;;5102038;27;20436;-75
2023/04/21 12:09:20;;;;;;;10.82;3.28;;;20.90;99.90;;;;;;5098250;27;20448;-75
2023/04/21 12:11:52;;;;;;;6.97;2.85;;;20.80;99.90;;;;;;5099358;27;20404;-75
2023/04/21 12:14:21;;;;;;;5.93;2.50;;;20.60;99.90;;;;;;5095941;28;20494;-75
2023/04/21 12:16:56;;;;;;;4.93;2.70;;;20.60;99.90;;;;;;5095701;28;20461;-75
2023/04/21 12:19:33;;;;;;;6.97;2.67;;;20.40;99.90;;;;;;5093610;27;20445;-75
2023/04/21 12:22:00;;;;;;;7.47;2.90;;;20.30;99.90;;;;;;5076009;27;20420;-75
2023/04/21 12:24:26;;;;;;;7.47;2.90;;;20.40;99.90;;;;;;5092611;28;20422;-75
2023/04/21 12:26:53;;;;;;;7.68;2.85;;;20.50;99.90;;;;;;5076876;28;20405;-74
2023/04/21 12:29:20;;;;;;;5.93;2.70;;;20.30;99.90;;;;;;5103040;27;20896;-75
2023/04/21 12:31:46;;;;;;;6.38;2.80;;;20.20;99.90;;;;;;5067608;28;20823;-74
2023/04/21 12:34:12;;;;;;;8.63;3.20;;;20.10;99.90;;;;;;5093200;28;20414;-74
2023/04/21 12:36:38;;;;;;;11.57;2.80;;;20.20;99.90;;;;;;5082673;28;20802;-75
2023/04/21 12:39:05;;;;;;;7.00;3.00;;;20.10;99.90;;;;;;5060411;28;21211;-75
2023/04/21 12:41:33;;;;;;;8.18;2.75;;;20.00;99.90;;;;;;5077505;28;20533;-75
2023/04/21 12:43:59;;;;;;;7.43;2.95;;;20.20;99.90;;;;;;5097353;28;20421;-75
2023/04/21 12:46:26;;;;;;;6.25;3.08;;;20.30;99.90;;;;;;5089852;28;20420;-75
2023/04/21 12:48:52;;;;;;;7.28;2.90;;;20.20;99.90;;;;;;5092656;28;20444;-74
2023/04/21 12:51:19;;;;;;;7.45;2.80;;;20.20;99.90;;;;;;5098552;28;21207;-74